sensor_id;sensor_type;location;lat;lon;timestamp;pressure;altitude;pressure_sealevel;temperature
73673;BMP280;61972;19.480;-99.240;2023-11-22T00:01:10;77573.38;;;28.98
73673;BMP280;61972;19.480;-99.240;2023-11-22T00:03:36;77584.31;;;28.96
73673;BMP280;61972;19.480;-99.240;2023-11-22T00:06:02;77592.66;;;28.94
73673;BMP280;61972;19.480;-99.240;2023-11-22T00:08:28;77595.69;;;28.92
73673;BMP280;61972;19.480;-99.240;2023-11-22T00:10:57;77598.75;;;28.90
73673;BMP280;61972;19.480;-99.240;2023-11-22T00:13:24;77603.44;;;28.89
73673;BMP280;61972;19.480;-99.240;2023-11-22T00:15:51;77608.16;;;28.89
73673;BMP280;61972;19.480;-99.240;2023-11-22T00:18:17;77607.03;;;28.88
73673;BMP280;61972;19.480;-99.240;2023-11-22T00:20:43;77609.66;;;28.88
73673;BMP280;61972;19.480;-99.240;2023-11-22T00:23:09;77614.53;;;28.90
73673;BMP280;61972;19.480;-99.240;2023-11-22T00:25:36;77611.91;;;28.90
73673;BMP280;61972;19.480;-99.240;2023-11-22T00:28:02;77609.81;;;28.90
73673;BMP280;61972;19.480;-99.240;2023-11-22T00:30:31;77608.28;;;28.91
73673;BMP280;61972;19.480;-99.240;2023-11-22T00:32:58;77610.91;;;28.91
73673;BMP280;61972;19.480;-99.240;2023-11-22T00:35:24;77615.63;;;28.91
73673;BMP280;61972;19.480;-99.240;2023-11-22T00:37:50;77617.16;;;28.90
73673;BMP280;61972;19.480;-99.240;2023-11-22T00:40:16;77622.41;;;28.90
73673;BMP280;61972;19.480;-99.240;2023-11-22T00:42:43;77623.38;;;28.88
73673;BMP280;61972;19.480;-99.240;2023-11-22T00:45:10;77618.69;;;28.89
73673;BMP280;61972;19.480;-99.240;2023-11-22T00:47:36;77632.38;;;28.89
73673;BMP280;61972;19.480;-99.240;2023-11-22T00:50:03;77637.63;;;28.89
73673;BMP280;61972;19.480;-99.240;2023-11-22T00:52:30;77641.38;;;28.90
73673;BMP280;61972;19.480;-99.240;2023-11-22T00:54:57;77640.84;;;28.90
73673;BMP280;61972;19.480;-99.240;2023-11-22T00:57:23;77650.25;;;28.89
73673;BMP280;61972;19.480;-99.240;2023-11-22T00:59:49;77656.03;;;28.89
73673;BMP280;61972;19.480;-99.240;2023-11-22T01:02:16;77647.06;;;28.88
73673;BMP280;61972;19.480;-99.240;2023-11-22T01:04:42;77649.69;;;28.88
73673;BMP280;61972;19.480;-99.240;2023-11-22T01:07:08;77649.13;;;28.88
73673;BMP280;61972;19.480;-99.240;2023-11-22T01:09:35;77659.66;;;28.88
73673;BMP280;61972;19.480;-99.240;2023-11-22T01:12:01;77671.72;;;28.87
73673;BMP280;61972;19.480;-99.240;2023-11-22T01:14:28;77673.22;;;28.86
73673;BMP280;61972;19.480;-99.240;2023-11-22T01:16:55;77673.22;;;28.86
73673;BMP280;61972;19.480;-99.240;2023-11-22T01:19:22;77674.72;;;28.84
73673;BMP280;61972;19.480;-99.240;2023-11-22T01:21:48;77681.53;;;28.83
73673;BMP280;61972;19.480;-99.240;2023-11-22T01:24:14;77677.78;;;28.82
73673;BMP280;61972;19.480;-99.240;2023-11-22T01:26:40;77674.59;;;28.82
73673;BMP280;61972;19.480;-99.240;2023-11-22T01:29:06;77680.84;;;28.80
73673;BMP280;61972;19.480;-99.240;2023-11-22T01:31:32;77682.38;;;28.79
73673;BMP280;61972;19.480;-99.240;2023-11-22T01:33:59;77680.72;;;28.78
73673;BMP280;61972;19.480;-99.240;2023-11-22T01:36:26;77695.94;;;28.77
73673;BMP280;61972;19.480;-99.240;2023-11-22T01:38:53;77699.13;;;28.78
73673;BMP280;61972;19.480;-99.240;2023-11-22T01:41:19;77695.38;;;28.77
73673;BMP280;61972;19.480;-99.240;2023-11-22T01:43:45;77709.47;;;28.75
73673;BMP280;61972;19.480;-99.240;2023-11-22T01:46:24;77716.16;;;28.72
73673;BMP280;61972;19.480;-99.240;2023-11-22T01:48:52;77713.91;;;28.70
73673;BMP280;61972;19.480;-99.240;2023-11-22T01:51:21;77720.16;;;28.68
73673;BMP280;61972;19.480;-99.240;2023-11-22T01:53:50;77720.56;;;28.66
73673;BMP280;61972;19.480;-99.240;2023-11-22T01:56:20;77729.41;;;28.64
73673;BMP280;61972;19.480;-99.240;2023-11-22T01:58:47;77740.88;;;28.63
73673;BMP280;61972;19.480;-99.240;2023-11-22T02:01:13;77750.31;;;28.62
73673;BMP280;61972;19.480;-99.240;2023-11-22T02:03:40;77742.41;;;28.62
73673;BMP280;61972;19.480;-99.240;2023-11-22T02:06:07;77747.69;;;28.62
73673;BMP280;61972;19.480;-99.240;2023-11-22T02:08:35;77752.25;;;28.59
73673;BMP280;61972;19.480;-99.240;2023-11-22T02:11:01;77752.63;;;28.57
73673;BMP280;61972;19.480;-99.240;2023-11-22T02:13:31;77736.03;;;28.51
73673;BMP280;61972;19.480;-99.240;2023-11-22T02:15:58;77735.75;;;28.46
73673;BMP280;61972;19.480;-99.240;2023-11-22T02:18:27;77731.72;;;28.40
73673;BMP280;61972;19.480;-99.240;2023-11-22T02:20:53;77742.91;;;28.33
73673;BMP280;61972;19.480;-99.240;2023-11-22T02:23:20;77745.66;;;28.26
73673;BMP280;61972;19.480;-99.240;2023-11-22T02:25:46;77739.00;;;28.20
73673;BMP280;61972;19.480;-99.240;2023-11-22T02:28:12;77739.13;;;28.13
73673;BMP280;61972;19.480;-99.240;2023-11-22T02:30:39;77732.88;;;28.04
73673;BMP280;61972;19.480;-99.240;2023-11-22T02:33:05;77741.97;;;27.98
73673;BMP280;61972;19.480;-99.240;2023-11-22T02:35:32;77734.19;;;27.91
73673;BMP280;61972;19.480;-99.240;2023-11-22T02:37:59;77732.81;;;27.85
73673;BMP280;61972;19.480;-99.240;2023-11-22T02:40:25;77736.66;;;27.79
73673;BMP280;61972;19.480;-99.240;2023-11-22T02:42:52;77745.75;;;27.73
73673;BMP280;61972;19.480;-99.240;2023-11-22T02:45:28;77743.22;;;27.65
73673;BMP280;61972;19.480;-99.240;2023-11-22T02:47:54;77740.31;;;27.60
73673;BMP280;61972;19.480;-99.240;2023-11-22T02:50:21;77752.56;;;27.55
73673;BMP280;61972;19.480;-99.240;2023-11-22T02:52:58;77773.25;;;27.49
73673;BMP280;61972;19.480;-99.240;2023-11-22T02:55:27;77764.66;;;27.46
73673;BMP280;61972;19.480;-99.240;2023-11-22T02:57:54;77759.13;;;27.41
73673;BMP280;61972;19.480;-99.240;2023-11-22T03:00:21;77764.63;;;27.37
73673;BMP280;61972;19.480;-99.240;2023-11-22T03:02:47;77776.06;;;27.35
73673;BMP280;61972;19.480;-99.240;2023-11-22T03:05:20;77767.66;;;27.35
73673;BMP280;61972;19.480;-99.240;2023-11-22T03:07:46;77791.28;;;27.35
73673;BMP280;61972;19.480;-99.240;2023-11-22T03:10:19;77800.25;;;27.36
73673;BMP280;61972;19.480;-99.240;2023-11-22T03:12:46;77801.91;;;27.37
73673;BMP280;61972;19.480;-99.240;2023-11-22T03:15:13;77796.66;;;27.37
73673;BMP280;61972;19.480;-99.240;2023-11-22T03:17:39;77806.38;;;27.41
73673;BMP280;61972;19.480;-99.240;2023-11-22T03:20:06;77803.88;;;27.44
73673;BMP280;61972;19.480;-99.240;2023-11-22T03:22:37;77806.09;;;27.46
73673;BMP280;61972;19.480;-99.240;2023-11-22T03:25:03;77807.38;;;27.49
73673;BMP280;61972;19.480;-99.240;2023-11-22T03:27:30;77803.78;;;27.51
73673;BMP280;61972;19.480;-99.240;2023-11-22T03:29:56;77800.34;;;27.55
73673;BMP280;61972;19.480;-99.240;2023-11-22T03:32:22;77802.59;;;27.57
73673;BMP280;61972;19.480;-99.240;2023-11-22T03:34:48;77811.19;;;27.60
73673;BMP280;61972;19.480;-99.240;2023-11-22T03:37:15;77825.03;;;27.63
73673;BMP280;61972;19.480;-99.240;2023-11-22T03:39:41;77820.47;;;27.66
73673;BMP280;61972;19.480;-99.240;2023-11-22T03:42:14;77818.97;;;27.67
73673;BMP280;61972;19.480;-99.240;2023-11-22T03:44:42;77821.75;;;27.70
73673;BMP280;61972;19.480;-99.240;2023-11-22T03:47:10;77831.13;;;27.69
73673;BMP280;61972;19.480;-99.240;2023-11-22T03:49:38;77839.56;;;27.69
73673;BMP280;61972;19.480;-99.240;2023-11-22T03:52:04;77856.28;;;27.68
73673;BMP280;61972;19.480;-99.240;2023-11-22T03:54:31;77875.59;;;27.66
73673;BMP280;61972;19.480;-99.240;2023-11-22T03:56:58;77887.44;;;27.63
73673;BMP280;61972;19.480;-99.240;2023-11-22T03:59:24;77895.19;;;27.60
73673;BMP280;61972;19.480;-99.240;2023-11-22T04:01:50;77894.59;;;27.60
73673;BMP280;61972;19.480;-99.240;2023-11-22T04:04:16;77900.09;;;27.55
73673;BMP280;61972;19.480;-99.240;2023-11-22T04:06:43;77902.00;;;27.52
73673;BMP280;61972;19.480;-99.240;2023-11-22T04:09:09;77902.44;;;27.50
73673;BMP280;61972;19.480;-99.240;2023-11-22T04:11:38;77903.94;;;27.49
73673;BMP280;61972;19.480;-99.240;2023-11-22T04:14:05;77918.56;;;27.48
73673;BMP280;61972;19.480;-99.240;2023-11-22T04:16:31;77916.34;;;27.46
73673;BMP280;61972;19.480;-99.240;2023-11-22T04:18:58;77921.59;;;27.46
73673;BMP280;61972;19.480;-99.240;2023-11-22T04:21:24;77917.84;;;27.45
73673;BMP280;61972;19.480;-99.240;2023-11-22T04:23:50;77905.84;;;27.46
73673;BMP280;61972;19.480;-99.240;2023-11-22T04:26:19;77903.75;;;27.46
73673;BMP280;61972;19.480;-99.240;2023-11-22T04:28:45;77890.63;;;27.46
73673;BMP280;61972;19.480;-99.240;2023-11-22T04:31:12;77893.25;;;27.46
73673;BMP280;61972;19.480;-99.240;2023-11-22T04:33:38;77900.22;;;27.48
73673;BMP280;61972;19.480;-99.240;2023-11-22T04:36:05;77900.22;;;27.48
73673;BMP280;61972;19.480;-99.240;2023-11-22T04:38:31;77888.19;;;27.49
73673;BMP280;61972;19.480;-99.240;2023-11-22T04:40:57;77896.75;;;27.52
73673;BMP280;61972;19.480;-99.240;2023-11-22T04:43:23;77906.16;;;27.51
73673;BMP280;61972;19.480;-99.240;2023-11-22T04:45:49;77877.28;;;27.51
73673;BMP280;61972;19.480;-99.240;2023-11-22T04:48:15;77873.56;;;27.50
73673;BMP280;61972;19.480;-99.240;2023-11-22T04:50:42;77888.72;;;27.49
73673;BMP280;61972;19.480;-99.240;2023-11-22T04:53:09;77893.44;;;27.49
73673;BMP280;61972;19.480;-99.240;2023-11-22T04:55:36;77892.34;;;27.48
73673;BMP280;61972;19.480;-99.240;2023-11-22T04:58:02;77889.31;;;27.50
73673;BMP280;61972;19.480;-99.240;2023-11-22T05:00:28;77890.81;;;27.49
73673;BMP280;61972;19.480;-99.240;2023-11-22T05:02:57;77892.34;;;27.48
73673;BMP280;61972;19.480;-99.240;2023-11-22T05:05:24;77883.47;;;27.49
73673;BMP280;61972;19.480;-99.240;2023-11-22T05:07:50;77896.06;;;27.49
73673;BMP280;61972;19.480;-99.240;2023-11-22T05:10:16;77905.06;;;27.50
73673;BMP280;61972;19.480;-99.240;2023-11-22T05:12:42;77907.69;;;27.50
73673;BMP280;61972;19.480;-99.240;2023-11-22T05:15:10;77896.59;;;27.49
73673;BMP280;61972;19.480;-99.240;2023-11-22T05:17:37;77889.72;;;27.48
73673;BMP280;61972;19.480;-99.240;2023-11-22T05:20:04;77878.22;;;27.49
73673;BMP280;61972;19.480;-99.240;2023-11-22T05:22:31;77866.09;;;27.48
73673;BMP280;61972;19.480;-99.240;2023-11-22T05:24:57;77876.59;;;27.48
73673;BMP280;61972;19.480;-99.240;2023-11-22T05:27:23;77878.22;;;27.49
73673;BMP280;61972;19.480;-99.240;2023-11-22T05:29:49;77877.69;;;27.49
73673;BMP280;61972;19.480;-99.240;2023-11-22T05:32:15;77871.34;;;27.48
73673;BMP280;61972;19.480;-99.240;2023-11-22T05:34:42;77879.34;;;27.50
73673;BMP280;61972;19.480;-99.240;2023-11-22T05:37:08;77879.91;;;27.51
73673;BMP280;61972;19.480;-99.240;2023-11-22T05:39:34;77872.03;;;27.51
73673;BMP280;61972;19.480;-99.240;2023-11-22T05:42:02;77864.16;;;27.51
73673;BMP280;61972;19.480;-99.240;2023-11-22T05:44:28;77862.63;;;27.52
73673;BMP280;61972;19.480;-99.240;2023-11-22T05:46:54;77866.38;;;27.53
73673;BMP280;61972;19.480;-99.240;2023-11-22T05:49:21;77866.38;;;27.53
73673;BMP280;61972;19.480;-99.240;2023-11-22T05:51:47;77855.88;;;27.53
73673;BMP280;61972;19.480;-99.240;2023-11-22T05:54:13;77855.88;;;27.53
73673;BMP280;61972;19.480;-99.240;2023-11-22T05:56:42;77861.13;;;27.53
73673;BMP280;61972;19.480;-99.240;2023-11-22T05:59:08;77855.88;;;27.53
73673;BMP280;61972;19.480;-99.240;2023-11-22T06:01:34;77841.09;;;27.51
73673;BMP280;61972;19.480;-99.240;2023-11-22T06:04:01;77845.22;;;27.50
73673;BMP280;61972;19.480;-99.240;2023-11-22T06:06:27;77839.97;;;27.50
73673;BMP280;61972;19.480;-99.240;2023-11-22T06:08:53;77831.56;;;27.50
73673;BMP280;61972;19.480;-99.240;2023-11-22T06:11:19;77825.19;;;27.49
73673;BMP280;61972;19.480;-99.240;2023-11-22T06:13:48;77821.47;;;27.48
73673;BMP280;61972;19.480;-99.240;2023-11-22T06:16:14;77827.09;;;27.46
73673;BMP280;61972;19.480;-99.240;2023-11-22T06:18:40;77815.50;;;27.45
73673;BMP280;61972;19.480;-99.240;2023-11-22T06:21:07;77812.16;;;27.42
73673;BMP280;61972;19.480;-99.240;2023-11-22T06:23:34;77812.53;;;27.40
73673;BMP280;61972;19.480;-99.240;2023-11-22T06:26:00;77823.44;;;27.38
73673;BMP280;61972;19.480;-99.240;2023-11-22T06:28:26;77816.00;;;27.36
73673;BMP280;61972;19.480;-99.240;2023-11-22T06:30:52;77812.09;;;27.32
73673;BMP280;61972;19.480;-99.240;2023-11-22T06:33:18;77816.47;;;27.26
73673;BMP280;61972;19.480;-99.240;2023-11-22T06:35:45;77816.88;;;27.24
73673;BMP280;61972;19.480;-99.240;2023-11-22T06:38:11;77811.63;;;27.24
73673;BMP280;61972;19.480;-99.240;2023-11-22T06:40:37;77804.88;;;27.25
73673;BMP280;61972;19.480;-99.240;2023-11-22T06:43:03;77818.16;;;27.28
73673;BMP280;61972;19.480;-99.240;2023-11-22T06:45:32;77820.38;;;27.30
73673;BMP280;61972;19.480;-99.240;2023-11-22T06:47:58;77820.13;;;27.35
73673;BMP280;61972;19.480;-99.240;2023-11-22T06:50:24;77821.94;;;27.39
73673;BMP280;61972;19.480;-99.240;2023-11-22T06:52:51;77814.38;;;27.44
73673;BMP280;61972;19.480;-99.240;2023-11-22T06:55:18;77814.38;;;27.44
73673;BMP280;61972;19.480;-99.240;2023-11-22T06:57:44;77803.16;;;27.41
73673;BMP280;61972;19.480;-99.240;2023-11-22T07:00:11;77795.88;;;27.41
73673;BMP280;61972;19.480;-99.240;2023-11-22T07:02:42;77796.00;;;27.44
73673;BMP280;61972;19.480;-99.240;2023-11-22T07:05:08;77809.13;;;27.44
73673;BMP280;61972;19.480;-99.240;2023-11-22T07:07:35;77823.38;;;27.45
73673;BMP280;61972;19.480;-99.240;2023-11-22T07:10:02;77815.50;;;27.45
73673;BMP280;61972;19.480;-99.240;2023-11-22T07:12:31;77802.94;;;27.45
73673;BMP280;61972;19.480;-99.240;2023-11-22T07:15:00;77794.50;;;27.45
73673;BMP280;61972;19.480;-99.240;2023-11-22T07:17:26;77790.34;;;27.46
73673;BMP280;61972;19.480;-99.240;2023-11-22T07:19:54;77799.75;;;27.45
73673;BMP280;61972;19.480;-99.240;2023-11-22T07:22:21;77800.31;;;27.45
73673;BMP280;61972;19.480;-99.240;2023-11-22T07:24:48;77800.31;;;27.45
73673;BMP280;61972;19.480;-99.240;2023-11-22T07:27:17;77802.38;;;27.45
73673;BMP280;61972;19.480;-99.240;2023-11-22T07:29:44;77801.25;;;27.44
73673;BMP280;61972;19.480;-99.240;2023-11-22T07:32:13;77796.41;;;27.42
73673;BMP280;61972;19.480;-99.240;2023-11-22T07:34:40;77793.25;;;27.41
73673;BMP280;61972;19.480;-99.240;2023-11-22T07:37:07;77792.69;;;27.41
73673;BMP280;61972;19.480;-99.240;2023-11-22T07:39:34;77794.19;;;27.40
73673;BMP280;61972;19.480;-99.240;2023-11-22T07:42:02;77784.81;;;27.41
73673;BMP280;61972;19.480;-99.240;2023-11-22T07:44:28;77782.59;;;27.39
73673;BMP280;61972;19.480;-99.240;2023-11-22T07:46:58;77765.31;;;27.40
73673;BMP280;61972;19.480;-99.240;2023-11-22T07:49:26;77770.19;;;27.42
73673;BMP280;61972;19.480;-99.240;2023-11-22T07:51:52;77770.19;;;27.42
73673;BMP280;61972;19.480;-99.240;2023-11-22T07:54:21;77779.00;;;27.40
73673;BMP280;61972;19.480;-99.240;2023-11-22T07:56:54;77779.56;;;27.41
73673;BMP280;61972;19.480;-99.240;2023-11-22T07:59:20;77772.09;;;27.39
73673;BMP280;61972;19.480;-99.240;2023-11-22T08:01:46;77767.38;;;27.39
73673;BMP280;61972;19.480;-99.240;2023-11-22T08:04:16;77769.47;;;27.39
73673;BMP280;61972;19.480;-99.240;2023-11-22T08:06:43;77765.31;;;27.40
73673;BMP280;61972;19.480;-99.240;2023-11-22T08:09:09;77766.28;;;27.38
73673;BMP280;61972;19.480;-99.240;2023-11-22T08:11:36;77763.66;;;27.38
73673;BMP280;61972;19.480;-99.240;2023-11-22T08:14:02;77765.16;;;27.37
73673;BMP280;61972;19.480;-99.240;2023-11-22T08:16:29;77756.34;;;27.39
73673;BMP280;61972;19.480;-99.240;2023-11-22T08:18:55;77751.09;;;27.39
73673;BMP280;61972;19.480;-99.240;2023-11-22T08:21:22;77749.56;;;27.40
73673;BMP280;61972;19.480;-99.240;2023-11-22T08:23:49;77758.97;;;27.39
73673;BMP280;61972;19.480;-99.240;2023-11-22T08:26:16;77753.16;;;27.38
73673;BMP280;61972;19.480;-99.240;2023-11-22T08:28:42;77761.59;;;27.39
73673;BMP280;61972;19.480;-99.240;2023-11-22T08:31:08;77758.97;;;27.39
73673;BMP280;61972;19.480;-99.240;2023-11-22T08:33:38;77754.13;;;27.37
73673;BMP280;61972;19.480;-99.240;2023-11-22T08:36:06;77756.19;;;27.36
73673;BMP280;61972;19.480;-99.240;2023-11-22T08:38:33;77758.81;;;27.36
73673;BMP280;61972;19.480;-99.240;2023-11-22T08:41:04;77758.28;;;27.36
73673;BMP280;61972;19.480;-99.240;2023-11-22T08:43:33;77758.66;;;27.33
73673;BMP280;61972;19.480;-99.240;2023-11-22T08:46:00;77740.84;;;27.34
73673;BMP280;61972;19.480;-99.240;2023-11-22T08:48:30;77748.56;;;27.31
73673;BMP280;61972;19.480;-99.240;2023-11-22T08:50:57;77724.38;;;27.31
73673;BMP280;61972;19.480;-99.240;2023-11-22T08:53:24;77715.97;;;27.30
73673;BMP280;61972;19.480;-99.240;2023-11-22T08:55:50;77693.34;;;27.29
73673;BMP280;61972;19.480;-99.240;2023-11-22T08:58:17;77699.50;;;27.27
73673;BMP280;61972;19.480;-99.240;2023-11-22T09:00:43;77716.75;;;27.26
73673;BMP280;61972;19.480;-99.240;2023-11-22T09:03:11;77710.41;;;27.25
73673;BMP280;61972;19.480;-99.240;2023-11-22T09:05:44;77719.78;;;27.24
73673;BMP280;61972;19.480;-99.240;2023-11-22T09:08:11;77726.56;;;27.23
73673;BMP280;61972;19.480;-99.240;2023-11-22T09:10:41;77729.19;;;27.23
73673;BMP280;61972;19.480;-99.240;2023-11-22T09:13:08;77738.00;;;27.22
73673;BMP280;61972;19.480;-99.240;2023-11-22T09:15:37;77753.22;;;27.21
73673;BMP280;61972;19.480;-99.240;2023-11-22T09:18:04;77750.41;;;27.19
73673;BMP280;61972;19.480;-99.240;2023-11-22T09:20:31;77741.44;;;27.18
73673;BMP280;61972;19.480;-99.240;2023-11-22T09:22:58;77749.88;;;27.18
73673;BMP280;61972;19.480;-99.240;2023-11-22T09:25:25;77738.25;;;27.17
73673;BMP280;61972;19.480;-99.240;2023-11-22T09:27:52;77734.13;;;27.18
73673;BMP280;61972;19.480;-99.240;2023-11-22T09:30:24;77718.41;;;27.18
73673;BMP280;61972;19.480;-99.240;2023-11-22T09:33:12;77719.91;;;27.17
73673;BMP280;61972;19.480;-99.240;2023-11-22T09:35:43;77712.56;;;27.18
73673;BMP280;61972;19.480;-99.240;2023-11-22T09:38:10;77714.25;;;27.19
73673;BMP280;61972;19.480;-99.240;2023-11-22T09:40:50;77712.75;;;27.20
73673;BMP280;61972;19.480;-99.240;2023-11-22T09:43:18;77711.22;;;27.21
73673;BMP280;61972;19.480;-99.240;2023-11-22T09:45:49;77718.13;;;27.23
73673;BMP280;61972;19.480;-99.240;2023-11-22T09:48:19;77738.16;;;27.24
73673;BMP280;61972;19.480;-99.240;2023-11-22T09:51:15;77754.47;;;27.25
73673;BMP280;61972;19.480;-99.240;2023-11-22T09:53:57;77758.34;;;27.28
73673;BMP280;61972;19.480;-99.240;2023-11-22T09:56:26;77748.56;;;27.31
73673;BMP280;61972;19.480;-99.240;2023-11-22T09:58:54;77745.53;;;27.33
73673;BMP280;61972;19.480;-99.240;2023-11-22T10:01:24;77744.03;;;27.35
73673;BMP280;61972;19.480;-99.240;2023-11-22T10:03:54;77718.91;;;27.36
73673;BMP280;61972;19.480;-99.240;2023-11-22T10:06:20;77709.53;;;27.37
73673;BMP280;61972;19.480;-99.240;2023-11-22T10:08:46;77718.50;;;27.38
73673;BMP280;61972;19.480;-99.240;2023-11-22T10:11:16;77715.19;;;27.35
73673;BMP280;61972;19.480;-99.240;2023-11-22T10:13:52;77736.25;;;27.27
73673;BMP280;61972;19.480;-99.240;2023-11-22T10:16:19;77752.09;;;27.20
73673;BMP280;61972;19.480;-99.240;2023-11-22T10:18:47;77755.19;;;27.11
73673;BMP280;61972;19.480;-99.240;2023-11-22T10:21:26;77740.75;;;26.98
73673;BMP280;61972;19.480;-99.240;2023-11-22T10:23:56;77726.88;;;26.85
73673;BMP280;61972;19.480;-99.240;2023-11-22T10:26:24;77726.06;;;26.72
73673;BMP280;61972;19.480;-99.240;2023-11-22T10:28:52;77746.81;;;26.60
73673;BMP280;61972;19.480;-99.240;2023-11-22T10:31:19;77726.72;;;26.48
73673;BMP280;61972;19.480;-99.240;2023-11-22T10:33:47;77730.59;;;26.35
73673;BMP280;61972;19.480;-99.240;2023-11-22T10:36:15;77737.81;;;26.25
73673;BMP280;61972;19.480;-99.240;2023-11-22T10:38:45;77743.91;;;26.13
73673;BMP280;61972;19.480;-99.240;2023-11-22T10:41:12;77740.06;;;26.02
73673;BMP280;61972;19.480;-99.240;2023-11-22T10:43:40;77738.88;;;25.92
73673;BMP280;61972;19.480;-99.240;2023-11-22T10:46:07;77739.31;;;25.82
73673;BMP280;61972;19.480;-99.240;2023-11-22T10:48:37;77743.88;;;25.72
73673;BMP280;61972;19.480;-99.240;2023-11-22T10:51:04;77760.03;;;25.63
73673;BMP280;61972;19.480;-99.240;2023-11-22T10:53:33;77755.22;;;25.54
73673;BMP280;61972;19.480;-99.240;2023-11-22T10:56:14;77750.44;;;25.44
73673;BMP280;61972;19.480;-99.240;2023-11-22T11:01:17;77743.06;;;25.28
73673;BMP280;61972;19.480;-99.240;2023-11-22T11:04:00;77724.81;;;25.21
73673;BMP280;61972;19.480;-99.240;2023-11-22T11:06:33;77727.47;;;25.14
73673;BMP280;61972;19.480;-99.240;2023-11-22T11:09:02;77730.13;;;25.06
73673;BMP280;61972;19.480;-99.240;2023-11-22T11:11:32;77741.75;;;25.00
73673;BMP280;61972;19.480;-99.240;2023-11-22T11:13:59;77731.91;;;24.94
73673;BMP280;61972;19.480;-99.240;2023-11-22T11:16:27;77741.41;;;24.88
73673;BMP280;61972;19.480;-99.240;2023-11-22T11:18:54;77747.81;;;24.82
73673;BMP280;61972;19.480;-99.240;2023-11-22T11:21:20;77745.22;;;24.74
73673;BMP280;61972;19.480;-99.240;2023-11-22T11:23:47;77745.28;;;24.67
73673;BMP280;61972;19.480;-99.240;2023-11-22T11:26:16;77755.91;;;24.63
73673;BMP280;61972;19.480;-99.240;2023-11-22T11:28:45;77759.13;;;24.56
73673;BMP280;61972;19.480;-99.240;2023-11-22T11:31:13;77768.66;;;24.50
73673;BMP280;61972;19.480;-99.240;2023-11-22T11:36:28;77769.25;;;24.36
73673;BMP280;61972;19.480;-99.240;2023-11-22T11:38:58;77775.25;;;24.32
73673;BMP280;61972;19.480;-99.240;2023-11-22T11:41:31;77768.16;;;24.28
73673;BMP280;61972;19.480;-99.240;2023-11-22T11:43:59;77770.97;;;24.24
73673;BMP280;61972;19.480;-99.240;2023-11-22T11:46:29;77773.78;;;24.19
73673;BMP280;61972;19.480;-99.240;2023-11-22T11:48:55;77774.00;;;24.14
73673;BMP280;61972;19.480;-99.240;2023-11-22T11:51:23;77779.38;;;24.10
73673;BMP280;61972;19.480;-99.240;2023-11-22T11:53:50;77780.16;;;24.06
73673;BMP280;61972;19.480;-99.240;2023-11-22T11:56:16;77783.50;;;24.02
73673;BMP280;61972;19.480;-99.240;2023-11-22T11:58:46;77774.38;;;23.98
73673;BMP280;61972;19.480;-99.240;2023-11-22T12:01:16;77764.13;;;23.93
73673;BMP280;61972;19.480;-99.240;2023-11-22T12:03:43;77768.03;;;23.90
73673;BMP280;61972;19.480;-99.240;2023-11-22T12:06:09;77764.13;;;23.86
73673;BMP280;61972;19.480;-99.240;2023-11-22T12:08:35;77770.09;;;23.82
73673;BMP280;61972;19.480;-99.240;2023-11-22T12:11:05;77771.63;;;23.81
73673;BMP280;61972;19.480;-99.240;2023-11-22T12:13:34;77763.41;;;23.76
73673;BMP280;61972;19.480;-99.240;2023-11-22T12:16:05;77763.78;;;23.74
73673;BMP280;61972;19.480;-99.240;2023-11-22T12:18:47;77771.41;;;23.71
73673;BMP280;61972;19.480;-99.240;2023-11-22T12:21:15;77778.50;;;23.68
73673;BMP280;61972;19.480;-99.240;2023-11-22T12:23:42;77776.28;;;23.66
73673;BMP280;61972;19.480;-99.240;2023-11-22T12:26:16;77785.94;;;23.63
73673;BMP280;61972;19.480;-99.240;2023-11-22T12:28:46;77781.69;;;23.61
73673;BMP280;61972;19.480;-99.240;2023-11-22T12:31:14;77789.84;;;23.59
73673;BMP280;61972;19.480;-99.240;2023-11-22T12:33:41;77780.72;;;23.56
73673;BMP280;61972;19.480;-99.240;2023-11-22T12:36:09;77774.22;;;23.52
73673;BMP280;61972;19.480;-99.240;2023-11-22T12:38:36;77781.84;;;23.50
73673;BMP280;61972;19.480;-99.240;2023-11-22T12:41:06;77790.97;;;23.46
73673;BMP280;61972;19.480;-99.240;2023-11-22T12:43:33;77810.16;;;23.44
73673;BMP280;61972;19.480;-99.240;2023-11-22T12:46:01;77795.44;;;23.43
73673;BMP280;61972;19.480;-99.240;2023-11-22T12:48:27;77801.59;;;23.41
73673;BMP280;61972;19.480;-99.240;2023-11-22T12:50:58;77798.22;;;23.38
73673;BMP280;61972;19.480;-99.240;2023-11-22T12:53:25;77805.88;;;23.36
73673;BMP280;61972;19.480;-99.240;2023-11-22T12:55:54;77808.28;;;23.33
73673;BMP280;61972;19.480;-99.240;2023-11-22T12:58:25;77815.91;;;23.31
73673;BMP280;61972;19.480;-99.240;2023-11-22T13:00:52;77809.56;;;23.30
73673;BMP280;61972;19.480;-99.240;2023-11-22T13:03:29;77816.28;;;23.28
73673;BMP280;61972;19.480;-99.240;2023-11-22T13:05:55;77809.97;;;23.27
73673;BMP280;61972;19.480;-99.240;2023-11-22T13:08:22;77820.75;;;23.25
73673;BMP280;61972;19.480;-99.240;2023-11-22T13:10:50;77821.13;;;23.23
73673;BMP280;61972;19.480;-99.240;2023-11-22T13:13:23;77829.28;;;23.21
73673;BMP280;61972;19.480;-99.240;2023-11-22T13:15:50;77820.72;;;23.18
73673;BMP280;61972;19.480;-99.240;2023-11-22T13:18:16;77817.38;;;23.15
73673;BMP280;61972;19.480;-99.240;2023-11-22T13:20:43;77811.97;;;23.13
73673;BMP280;61972;19.480;-99.240;2023-11-22T13:23:09;77813.84;;;23.09
73673;BMP280;61972;19.480;-99.240;2023-11-22T13:25:35;77822.59;;;23.08
73673;BMP280;61972;19.480;-99.240;2023-11-22T13:28:02;77823.88;;;23.04
73673;BMP280;61972;19.480;-99.240;2023-11-22T13:30:31;77827.41;;;23.03
73673;BMP280;61972;19.480;-99.240;2023-11-22T13:32:57;77825.19;;;23.01
73673;BMP280;61972;19.480;-99.240;2023-11-22T13:35:24;77843.78;;;22.99
73673;BMP280;61972;19.480;-99.240;2023-11-22T13:37:53;77850.28;;;22.95
73673;BMP280;61972;19.480;-99.240;2023-11-22T13:40:20;77843.38;;;22.94
73673;BMP280;61972;19.480;-99.240;2023-11-22T13:42:51;77839.09;;;22.92
73673;BMP280;61972;19.480;-99.240;2023-11-22T13:45:19;77844.66;;;22.90
73673;BMP280;61972;19.480;-99.240;2023-11-22T13:47:55;77849.13;;;22.87
73673;BMP280;61972;19.480;-99.240;2023-11-22T13:50:29;77856.38;;;22.86
73673;BMP280;61972;19.480;-99.240;2023-11-22T13:52:56;77839.06;;;22.85